sensor_id;sensor_type;location;lat;lon;timestamp;P1;durP1;ratioP1;P2;durP2;ratioP2
3433;SDS011;1730;41.932;25.548;2023-02-22T00:00:15;28.43;;;17.07;;
3433;SDS011;1730;41.932;25.548;2023-02-22T00:02:48;33.47;;;16.83;;
3433;SDS011;1730;41.932;25.548;2023-02-22T00:05:16;28.30;;;19.00;;
3433;SDS011;1730;41.932;25.548;2023-02-22T00:07:47;31.63;;;17.90;;
3433;SDS011;1730;41.932;25.548;2023-02-22T00:10:14;39.37;;;20.33;;
3433;SDS011;1730;41.932;25.548;2023-02-22T00:12:47;38.67;;;21.30;;
3433;SDS011;1730;41.932;25.548;2023-02-22T00:15:14;35.53;;;20.40;;
3433;SDS011;1730;41.932;25.548;2023-02-22T00:17:44;32.83;;;21.00;;
3433;SDS011;1730;41.932;25.548;2023-02-22T00:20:58;24.37;;;17.40;;
3433;SDS011;1730;41.932;25.548;2023-02-22T00:23:25;30.87;;;18.20;;
3433;SDS011;1730;41.932;25.548;2023-02-22T00:25:52;34.43;;;19.90;;
3433;SDS011;1730;41.932;25.548;2023-02-22T00:28:19;30.33;;;18.50;;
3433;SDS011;1730;41.932;25.548;2023-02-22T00:30:45;33.90;;;18.77;;
3433;SDS011;1730;41.932;25.548;2023-02-22T00:33:12;33.80;;;20.90;;
3433;SDS011;1730;41.932;25.548;2023-02-22T00:35:39;35.17;;;21.03;;
3433;SDS011;1730;41.932;25.548;2023-02-22T00:38:10;37.50;;;22.97;;
3433;SDS011;1730;41.932;25.548;2023-02-22T00:40:37;34.13;;;22.10;;
3433;SDS011;1730;41.932;25.548;2023-02-22T00:43:04;29.60;;;18.63;;
3433;SDS011;1730;41.932;25.548;2023-02-22T00:45:31;27.00;;;17.50;;
3433;SDS011;1730;41.932;25.548;2023-02-22T00:47:58;24.83;;;16.33;;
3433;SDS011;1730;41.932;25.548;2023-02-22T00:50:25;27.70;;;16.20;;
3433;SDS011;1730;41.932;25.548;2023-02-22T00:52:53;31.03;;;14.73;;
3433;SDS011;1730;41.932;25.548;2023-02-22T00:55:24;24.00;;;14.13;;
3433;SDS011;1730;41.932;25.548;2023-02-22T00:57:51;20.37;;;13.43;;
3433;SDS011;1730;41.932;25.548;2023-02-22T01:00:25;21.93;;;14.00;;
3433;SDS011;1730;41.932;25.548;2023-02-22T01:02:59;20.43;;;13.03;;
3433;SDS011;1730;41.932;25.548;2023-02-22T01:05:25;17.20;;;12.10;;
3433;SDS011;1730;41.932;25.548;2023-02-22T01:07:53;18.40;;;12.20;;
3433;SDS011;1730;41.932;25.548;2023-02-22T01:10:21;22.90;;;12.10;;
3433;SDS011;1730;41.932;25.548;2023-02-22T01:12:47;16.97;;;11.83;;
3433;SDS011;1730;41.932;25.548;2023-02-22T01:15:14;13.53;;;10.20;;
3433;SDS011;1730;41.932;25.548;2023-02-22T01:17:42;20.67;;;11.30;;
3433;SDS011;1730;41.932;25.548;2023-02-22T01:20:08;13.10;;;10.03;;
3433;SDS011;1730;41.932;25.548;2023-02-22T01:22:37;15.53;;;10.40;;
3433;SDS011;1730;41.932;25.548;2023-02-22T01:25:04;13.90;;;9.07;;
3433;SDS011;1730;41.932;25.548;2023-02-22T01:27:31;11.90;;;8.83;;
3433;SDS011;1730;41.932;25.548;2023-02-22T01:29:58;10.50;;;8.93;;
3433;SDS011;1730;41.932;25.548;2023-02-22T01:32:25;12.53;;;8.30;;
3433;SDS011;1730;41.932;25.548;2023-02-22T01:34:53;10.00;;;7.73;;
3433;SDS011;1730;41.932;25.548;2023-02-22T01:37:19;13.60;;;8.90;;
3433;SDS011;1730;41.932;25.548;2023-02-22T01:39:44;12.63;;;7.83;;
3433;SDS011;1730;41.932;25.548;2023-02-22T01:42:11;17.20;;;9.00;;
3433;SDS011;1730;41.932;25.548;2023-02-22T01:44:37;12.53;;;8.83;;
3433;SDS011;1730;41.932;25.548;2023-02-22T01:47:05;10.40;;;8.40;;
3433;SDS011;1730;41.932;25.548;2023-02-22T01:49:45;13.10;;;9.30;;
3433;SDS011;1730;41.932;25.548;2023-02-22T01:52:17;10.70;;;8.70;;
3433;SDS011;1730;41.932;25.548;2023-02-22T01:54:46;13.23;;;8.83;;
3433;SDS011;1730;41.932;25.548;2023-02-22T02:00:20;13.33;;;9.53;;
3433;SDS011;1730;41.932;25.548;2023-02-22T02:02:49;11.13;;;9.20;;
3433;SDS011;1730;41.932;25.548;2023-02-22T02:05:24;17.90;;;9.50;;
3433;SDS011;1730;41.932;25.548;2023-02-22T02:07:55;9.53;;;8.47;;
3433;SDS011;1730;41.932;25.548;2023-02-22T02:10:22;11.23;;;8.70;;
3433;SDS011;1730;41.932;25.548;2023-02-22T02:12:49;13.10;;;9.47;;
3433;SDS011;1730;41.932;25.548;2023-02-22T02:15:30;16.23;;;9.30;;
3433;SDS011;1730;41.932;25.548;2023-02-22T02:18:08;13.03;;;9.50;;
3433;SDS011;1730;41.932;25.548;2023-02-22T02:41:38;15.87;;;10.13;;
3433;SDS011;1730;41.932;25.548;2023-02-22T02:46:45;8.37;;;7.20;;
3433;SDS011;1730;41.932;25.548;2023-02-22T02:49:39;9.30;;;7.67;;
3433;SDS011;1730;41.932;25.548;2023-02-22T02:52:12;12.33;;;8.67;;
3433;SDS011;1730;41.932;25.548;2023-02-22T02:54:42;11.60;;;8.00;;
3433;SDS011;1730;41.932;25.548;2023-02-22T02:57:09;14.47;;;8.30;;
3433;SDS011;1730;41.932;25.548;2023-02-22T02:59:36;18.20;;;9.30;;
3433;SDS011;1730;41.932;25.548;2023-02-22T03:18:01;12.83;;;7.23;;
3433;SDS011;1730;41.932;25.548;2023-02-22T03:23:19;17.03;;;11.43;;
3433;SDS011;1730;41.932;25.548;2023-02-22T03:26:02;12.77;;;9.83;;
3433;SDS011;1730;41.932;25.548;2023-02-22T03:28:32;14.40;;;9.93;;
3433;SDS011;1730;41.932;25.548;2023-02-22T03:31:04;18.83;;;10.50;;
3433;SDS011;1730;41.932;25.548;2023-02-22T03:36:12;23.97;;;12.70;;
3433;SDS011;1730;41.932;25.548;2023-02-22T03:38:44;16.40;;;12.37;;
3433;SDS011;1730;41.932;25.548;2023-02-22T03:41:11;19.40;;;12.20;;
3433;SDS011;1730;41.932;25.548;2023-02-22T03:43:41;16.73;;;11.77;;
3433;SDS011;1730;41.932;25.548;2023-02-22T03:46:12;30.37;;;17.03;;
3433;SDS011;1730;41.932;25.548;2023-02-22T03:51:13;21.47;;;14.00;;
3433;SDS011;1730;41.932;25.548;2023-02-22T03:53:40;25.50;;;15.23;;
3433;SDS011;1730;41.932;25.548;2023-02-22T03:56:09;27.27;;;16.27;;
3433;SDS011;1730;41.932;25.548;2023-02-22T03:58:39;26.13;;;16.30;;
3433;SDS011;1730;41.932;25.548;2023-02-22T04:01:12;26.97;;;13.63;;
3433;SDS011;1730;41.932;25.548;2023-02-22T04:03:37;15.00;;;10.70;;
3433;SDS011;1730;41.932;25.548;2023-02-22T04:06:04;14.93;;;9.83;;
3433;SDS011;1730;41.932;25.548;2023-02-22T04:08:30;13.67;;;9.47;;
3433;SDS011;1730;41.932;25.548;2023-02-22T04:10:56;13.27;;;9.60;;
3433;SDS011;1730;41.932;25.548;2023-02-22T04:13:21;12.27;;;9.10;;
3433;SDS011;1730;41.932;25.548;2023-02-22T04:15:47;14.93;;;11.13;;
3433;SDS011;1730;41.932;25.548;2023-02-22T04:18:14;17.97;;;9.57;;
3433;SDS011;1730;41.932;25.548;2023-02-22T04:20:40;17.20;;;10.70;;
3433;SDS011;1730;41.932;25.548;2023-02-22T04:23:07;13.03;;;10.30;;
3433;SDS011;1730;41.932;25.548;2023-02-22T04:25:33;13.97;;;10.80;;
3433;SDS011;1730;41.932;25.548;2023-02-22T04:27:58;15.77;;;10.90;;
3433;SDS011;1730;41.932;25.548;2023-02-22T04:30:24;16.70;;;11.13;;
3433;SDS011;1730;41.932;25.548;2023-02-22T04:32:51;19.97;;;13.10;;
3433;SDS011;1730;41.932;25.548;2023-02-22T04:35:17;15.93;;;11.40;;
3433;SDS011;1730;41.932;25.548;2023-02-22T04:37:44;19.97;;;12.13;;
3433;SDS011;1730;41.932;25.548;2023-02-22T04:40:11;28.67;;;15.50;;
3433;SDS011;1730;41.932;25.548;2023-02-22T04:42:38;24.20;;;14.10;;
3433;SDS011;1730;41.932;25.548;2023-02-22T04:45:05;19.83;;;14.37;;
3433;SDS011;1730;41.932;25.548;2023-02-22T04:47:32;21.43;;;16.20;;
3433;SDS011;1730;41.932;25.548;2023-02-22T04:49:58;23.20;;;17.77;;
3433;SDS011;1730;41.932;25.548;2023-02-22T04:52:24;26.33;;;16.97;;
3433;SDS011;1730;41.932;25.548;2023-02-22T04:54:51;26.70;;;17.07;;
3433;SDS011;1730;41.932;25.548;2023-02-22T04:57:17;69.47;;;33.83;;
3433;SDS011;1730;41.932;25.548;2023-02-22T04:59:42;79.17;;;43.93;;
3433;SDS011;1730;41.932;25.548;2023-02-22T05:02:08;62.50;;;38.50;;
3433;SDS011;1730;41.932;25.548;2023-02-22T05:04:33;63.40;;;37.20;;
3433;SDS011;1730;41.932;25.548;2023-02-22T05:07:01;47.13;;;27.47;;
3433;SDS011;1730;41.932;25.548;2023-02-22T05:09:27;41.97;;;24.80;;
3433;SDS011;1730;41.932;25.548;2023-02-22T05:11:53;42.40;;;23.73;;
3433;SDS011;1730;41.932;25.548;2023-02-22T05:14:18;67.80;;;40.00;;
3433;SDS011;1730;41.932;25.548;2023-02-22T05:16:44;82.60;;;47.67;;
3433;SDS011;1730;41.932;25.548;2023-02-22T05:19:09;75.90;;;43.70;;
3433;SDS011;1730;41.932;25.548;2023-02-22T05:21:35;76.83;;;41.07;;
3433;SDS011;1730;41.932;25.548;2023-02-22T05:24:00;60.07;;;38.47;;
3433;SDS011;1730;41.932;25.548;2023-02-22T05:26:26;59.10;;;31.67;;
3433;SDS011;1730;41.932;25.548;2023-02-22T05:28:51;66.30;;;35.20;;
3433;SDS011;1730;41.932;25.548;2023-02-22T05:31:17;61.23;;;35.80;;
3433;SDS011;1730;41.932;25.548;2023-02-22T05:33:43;52.07;;;31.60;;
3433;SDS011;1730;41.932;25.548;2023-02-22T05:36:08;50.63;;;33.97;;
3433;SDS011;1730;41.932;25.548;2023-02-22T05:38:35;54.47;;;33.40;;
3433;SDS011;1730;41.932;25.548;2023-02-22T05:41:08;53.77;;;34.10;;
3433;SDS011;1730;41.932;25.548;2023-02-22T05:43:35;44.53;;;27.97;;
3433;SDS011;1730;41.932;25.548;2023-02-22T05:46:01;40.67;;;24.40;;
3433;SDS011;1730;41.932;25.548;2023-02-22T05:48:27;40.47;;;23.87;;
3433;SDS011;1730;41.932;25.548;2023-02-22T05:50:53;39.33;;;23.30;;
3433;SDS011;1730;41.932;25.548;2023-02-22T05:53:20;39.40;;;25.23;;
3433;SDS011;1730;41.932;25.548;2023-02-22T05:55:45;58.27;;;27.30;;
3433;SDS011;1730;41.932;25.548;2023-02-22T05:58:11;40.10;;;23.87;;
3433;SDS011;1730;41.932;25.548;2023-02-22T06:00:37;45.43;;;26.77;;
3433;SDS011;1730;41.932;25.548;2023-02-22T06:03:04;38.97;;;24.83;;
3433;SDS011;1730;41.932;25.548;2023-02-22T06:05:32;41.53;;;23.43;;
3433;SDS011;1730;41.932;25.548;2023-02-22T06:07:58;40.60;;;24.33;;
3433;SDS011;1730;41.932;25.548;2023-02-22T06:10:24;33.63;;;19.10;;
3433;SDS011;1730;41.932;25.548;2023-02-22T06:12:50;29.47;;;15.90;;
3433;SDS011;1730;41.932;25.548;2023-02-22T06:15:17;23.60;;;16.90;;
3433;SDS011;1730;41.932;25.548;2023-02-22T06:17:44;34.37;;;18.00;;
3433;SDS011;1730;41.932;25.548;2023-02-22T06:20:11;35.83;;;18.43;;
3433;SDS011;1730;41.932;25.548;2023-02-22T06:22:39;34.97;;;18.97;;
3433;SDS011;1730;41.932;25.548;2023-02-22T06:25:11;71.83;;;20.13;;
3433;SDS011;1730;41.932;25.548;2023-02-22T06:27:39;31.67;;;19.33;;
3433;SDS011;1730;41.932;25.548;2023-02-22T06:30:07;46.67;;;32.80;;
3433;SDS011;1730;41.932;25.548;2023-02-22T06:32:53;28.17;;;20.90;;
3433;SDS011;1730;41.932;25.548;2023-02-22T06:35:19;48.60;;;24.03;;
3433;SDS011;1730;41.932;25.548;2023-02-22T06:37:45;49.37;;;27.83;;
3433;SDS011;1730;41.932;25.548;2023-02-22T06:40:12;58.30;;;34.10;;
3433;SDS011;1730;41.932;25.548;2023-02-22T06:42:39;61.73;;;32.73;;
3433;SDS011;1730;41.932;25.548;2023-02-22T06:45:05;67.20;;;35.73;;
3433;SDS011;1730;41.932;25.548;2023-02-22T06:47:31;65.70;;;35.27;;
3433;SDS011;1730;41.932;25.548;2023-02-22T06:49:57;52.83;;;31.97;;
3433;SDS011;1730;41.932;25.548;2023-02-22T06:52:24;56.43;;;34.83;;
3433;SDS011;1730;41.932;25.548;2023-02-22T06:54:50;54.23;;;33.33;;
3433;SDS011;1730;41.932;25.548;2023-02-22T06:57:16;68.03;;;32.93;;
3433;SDS011;1730;41.932;25.548;2023-02-22T06:59:42;68.97;;;32.47;;
3433;SDS011;1730;41.932;25.548;2023-02-22T07:02:11;77.80;;;35.23;;
3433;SDS011;1730;41.932;25.548;2023-02-22T07:04:37;53.30;;;33.30;;
3433;SDS011;1730;41.932;25.548;2023-02-22T07:07:03;60.43;;;35.77;;
3433;SDS011;1730;41.932;25.548;2023-02-22T07:09:30;69.87;;;38.13;;
3433;SDS011;1730;41.932;25.548;2023-02-22T07:11:58;64.33;;;36.67;;
3433;SDS011;1730;41.932;25.548;2023-02-22T07:14:24;75.03;;;38.27;;
3433;SDS011;1730;41.932;25.548;2023-02-22T07:16:49;70.53;;;36.30;;
3433;SDS011;1730;41.932;25.548;2023-02-22T07:19:20;61.80;;;37.87;;
3433;SDS011;1730;41.932;25.548;2023-02-22T07:21:47;68.03;;;36.83;;
3433;SDS011;1730;41.932;25.548;2023-02-22T07:24:15;69.43;;;39.70;;
3433;SDS011;1730;41.932;25.548;2023-02-22T07:26:41;74.63;;;40.23;;
3433;SDS011;1730;41.932;25.548;2023-02-22T07:29:08;73.87;;;39.40;;
3433;SDS011;1730;41.932;25.548;2023-02-22T07:31:54;63.67;;;38.13;;
3433;SDS011;1730;41.932;25.548;2023-02-22T07:34:21;59.43;;;36.90;;
3433;SDS011;1730;41.932;25.548;2023-02-22T07:36:47;66.80;;;36.77;;
3433;SDS011;1730;41.932;25.548;2023-02-22T07:39:14;62.30;;;35.90;;
3433;SDS011;1730;41.932;25.548;2023-02-22T07:41:41;64.43;;;37.17;;
3433;SDS011;1730;41.932;25.548;2023-02-22T07:44:09;52.87;;;33.83;;
3433;SDS011;1730;41.932;25.548;2023-02-22T07:46:35;59.33;;;33.10;;
3433;SDS011;1730;41.932;25.548;2023-02-22T07:49:02;64.80;;;38.27;;
3433;SDS011;1730;41.932;25.548;2023-02-22T07:51:28;60.00;;;32.00;;
3433;SDS011;1730;41.932;25.548;2023-02-22T07:53:55;79.70;;;32.20;;
3433;SDS011;1730;41.932;25.548;2023-02-22T07:56:20;80.50;;;33.33;;
3433;SDS011;1730;41.932;25.548;2023-02-22T07:58:47;84.07;;;35.13;;
3433;SDS011;1730;41.932;25.548;2023-02-22T08:01:33;72.33;;;33.90;;
3433;SDS011;1730;41.932;25.548;2023-02-22T08:04:01;51.70;;;29.37;;
3433;SDS011;1730;41.932;25.548;2023-02-22T08:06:26;52.53;;;28.40;;
3433;SDS011;1730;41.932;25.548;2023-02-22T08:08:52;54.53;;;27.10;;
3433;SDS011;1730;41.932;25.548;2023-02-22T08:11:19;40.20;;;21.53;;
3433;SDS011;1730;41.932;25.548;2023-02-22T08:13:44;38.53;;;20.17;;
3433;SDS011;1730;41.932;25.548;2023-02-22T08:16:10;36.93;;;19.30;;
3433;SDS011;1730;41.932;25.548;2023-02-22T08:18:35;38.33;;;17.73;;
3433;SDS011;1730;41.932;25.548;2023-02-22T08:21:04;30.87;;;17.80;;
3433;SDS011;1730;41.932;25.548;2023-02-22T08:23:30;36.07;;;16.20;;
3433;SDS011;1730;41.932;25.548;2023-02-22T08:26:02;24.83;;;15.37;;
3433;SDS011;1730;41.932;25.548;2023-02-22T08:28:29;34.10;;;18.70;;
3433;SDS011;1730;41.932;25.548;2023-02-22T08:30:55;42.40;;;16.30;;
3433;SDS011;1730;41.932;25.548;2023-02-22T08:33:21;30.77;;;15.17;;
3433;SDS011;1730;41.932;25.548;2023-02-22T08:35:47;17.27;;;12.37;;
3433;SDS011;1730;41.932;25.548;2023-02-22T08:38:16;23.67;;;12.40;;
3433;SDS011;1730;41.932;25.548;2023-02-22T08:40:42;23.03;;;12.83;;
3433;SDS011;1730;41.932;25.548;2023-02-22T08:43:07;16.13;;;11.30;;
3433;SDS011;1730;41.932;25.548;2023-02-22T08:45:33;16.37;;;10.87;;
3433;SDS011;1730;41.932;25.548;2023-02-22T08:47:59;15.40;;;10.30;;
3433;SDS011;1730;41.932;25.548;2023-02-22T08:50:26;13.77;;;9.30;;
3433;SDS011;1730;41.932;25.548;2023-02-22T08:52:55;9.47;;;7.17;;
3433;SDS011;1730;41.932;25.548;2023-02-22T08:55:31;11.53;;;6.60;;
3433;SDS011;1730;41.932;25.548;2023-02-22T08:57:59;3.57;;;3.30;;
3433;SDS011;1730;41.932;25.548;2023-02-22T09:00:27;4.60;;;3.80;;
3433;SDS011;1730;41.932;25.548;2023-02-22T09:02:57;2.93;;;2.73;;
3433;SDS011;1730;41.932;25.548;2023-02-22T09:05:24;3.70;;;2.87;;
3433;SDS011;1730;41.932;25.548;2023-02-22T09:07:51;3.70;;;3.10;;
3433;SDS011;1730;41.932;25.548;2023-02-22T09:10:20;5.83;;;2.90;;
3433;SDS011;1730;41.932;25.548;2023-02-22T09:12:49;6.37;;;3.80;;
3433;SDS011;1730;41.932;25.548;2023-02-22T09:15:16;4.63;;;4.13;;
3433;SDS011;1730;41.932;25.548;2023-02-22T09:17:42;4.90;;;4.50;;
3433;SDS011;1730;41.932;25.548;2023-02-22T09:20:08;3.77;;;3.40;;
3433;SDS011;1730;41.932;25.548;2023-02-22T09:22:36;6.23;;;4.43;;
3433;SDS011;1730;41.932;25.548;2023-02-22T09:25:03;4.00;;;3.00;;
3433;SDS011;1730;41.932;25.548;2023-02-22T09:27:29;6.57;;;3.90;;
3433;SDS011;1730;41.932;25.548;2023-02-22T09:29:54;3.00;;;2.80;;
3433;SDS011;1730;41.932;25.548;2023-02-22T09:32:21;8.33;;;3.23;;
3433;SDS011;1730;41.932;25.548;2023-02-22T09:34:47;7.90;;;3.00;;
3433;SDS011;1730;41.932;25.548;2023-02-22T09:37:13;5.23;;;3.30;;
3433;SDS011;1730;41.932;25.548;2023-02-22T09:39:38;3.97;;;2.50;;
3433;SDS011;1730;41.932;25.548;2023-02-22T09:50:20;9.60;;;3.00;;
3433;SDS011;1730;41.932;25.548;2023-02-22T09:52:55;4.00;;;2.60;;
3433;SDS011;1730;41.932;25.548;2023-02-22T09:55:30;2.77;;;2.57;;
3433;SDS011;1730;41.932;25.548;2023-02-22T09:57:58;2.70;;;2.13;;
3433;SDS011;1730;41.932;25.548;2023-02-22T10:00:29;3.03;;;2.70;;
3433;SDS011;1730;41.932;25.548;2023-02-22T10:05:56;2.00;;;1.90;;
3433;SDS011;1730;41.932;25.548;2023-02-22T10:08:43;2.50;;;2.30;;
3433;SDS011;1730;41.932;25.548;2023-02-22T10:22:20;1.63;;;1.47;;
3433;SDS011;1730;41.932;25.548;2023-02-22T10:25:21;2.10;;;1.90;;
3433;SDS011;1730;41.932;25.548;2023-02-22T10:30:39;2.13;;;1.80;;
3433;SDS011;1730;41.932;25.548;2023-02-22T10:36:09;5.50;;;2.07;;
3433;SDS011;1730;41.932;25.548;2023-02-22T10:38:47;3.00;;;1.70;;
3433;SDS011;1730;41.932;25.548;2023-02-22T10:43:47;1.70;;;1.43;;
3433;SDS011;1730;41.932;25.548;2023-02-22T10:46:14;5.60;;;2.30;;
3433;SDS011;1730;41.932;25.548;2023-02-22T10:48:44;6.80;;;1.87;;
3433;SDS011;1730;41.932;25.548;2023-02-22T10:51:13;2.13;;;1.80;;
3433;SDS011;1730;41.932;25.548;2023-02-22T10:53:39;4.27;;;2.73;;
3433;SDS011;1730;41.932;25.548;2023-02-22T10:58:45;3.60;;;1.50;;
3433;SDS011;1730;41.932;25.548;2023-02-22T11:04:00;3.07;;;1.97;;
3433;SDS011;1730;41.932;25.548;2023-02-22T11:06:35;2.40;;;2.20;;
3433;SDS011;1730;41.932;25.548;2023-02-22T11:11:34;1.90;;;1.80;;
3433;SDS011;1730;41.932;25.548;2023-02-22T11:14:02;2.47;;;2.27;;
3433;SDS011;1730;41.932;25.548;2023-02-22T11:16:41;3.27;;;2.00;;
3433;SDS011;1730;41.932;25.548;2023-02-22T11:19:18;2.47;;;2.27;;
3433;SDS011;1730;41.932;25.548;2023-02-22T11:21:47;5.80;;;2.50;;
3433;SDS011;1730;41.932;25.548;2023-02-22T11:24:15;2.17;;;1.97;;
3433;SDS011;1730;41.932;25.548;2023-02-22T11:26:45;2.03;;;1.90;;
3433;SDS011;1730;41.932;25.548;2023-02-22T11:29:21;3.40;;;2.77;;
3433;SDS011;1730;41.932;25.548;2023-02-22T11:32:02;3.03;;;2.83;;
3433;SDS011;1730;41.932;25.548;2023-02-22T11:34:46;1.57;;;1.47;;
3433;SDS011;1730;41.932;25.548;2023-02-22T11:37:26;2.60;;;1.13;;
3433;SDS011;1730;41.932;25.548;2023-02-22T11:42:46;10.80;;;2.20;;
3433;SDS011;1730;41.932;25.548;2023-02-22T11:45:32;2.23;;;2.03;;
3433;SDS011;1730;41.932;25.548;2023-02-22T11:48:00;3.07;;;1.57;;
3433;SDS011;1730;41.932;25.548;2023-02-22T11:50:37;3.80;;;1.50;;
3433;SDS011;1730;41.932;25.548;2023-02-22T11:53:28;1.97;;;1.80;;
3433;SDS011;1730;41.932;25.548;2023-02-22T11:59:01;3.03;;;2.10;;
3433;SDS011;1730;41.932;25.548;2023-02-22T12:01:41;3.17;;;1.63;;
3433;SDS011;1730;41.932;25.548;2023-02-22T12:04:22;2.40;;;2.10;;
3433;SDS011;1730;41.932;25.548;2023-02-22T12:12:53;4.70;;;1.90;;
3433;SDS011;1730;41.932;25.548;2023-02-22T12:15:41;3.00;;;2.30;;
3433;SDS011;1730;41.932;25.548;2023-02-22T12:21:03;5.43;;;3.67;;
3433;SDS011;1730;41.932;25.548;2023-02-22T12:26:10;2.30;;;2.10;;
3433;SDS011;1730;41.932;25.548;2023-02-22T12:28:38;2.40;;;2.20;;
3433;SDS011;1730;41.932;25.548;2023-02-22T12:31:17;2.20;;;2.10;;
3433;SDS011;1730;41.932;25.548;2023-02-22T12:33:54;5.80;;;2.10;;
3433;SDS011;1730;41.932;25.548;2023-02-22T12:36:32;7.33;;;2.20;;
3433;SDS011;1730;41.932;25.548;2023-02-22T12:39:04;3.40;;;2.50;;
3433;SDS011;1730;41.932;25.548;2023-02-22T12:42:04;3.70;;;2.20;;
3433;SDS011;1730;41.932;25.548;2023-02-22T12:44:38;1.90;;;1.80;;
3433;SDS011;1730;41.932;25.548;2023-02-22T12:47:09;1.90;;;1.70;;
3433;SDS011;1730;41.932;25.548;2023-02-22T12:49:43;3.10;;;1.67;;
3433;SDS011;1730;41.932;25.548;2023-02-22T13:00:29;4.13;;;2.00;;
3433;SDS011;1730;41.932;25.548;2023-02-22T13:03:44;3.60;;;1.70;;
3433;SDS011;1730;41.932;25.548;2023-02-22T13:09:07;3.03;;;1.97;;
3433;SDS011;1730;41.932;25.548;2023-02-22T13:11:48;1.60;;;1.50;;
3433;SDS011;1730;41.932;25.548;2023-02-22T13:25:47;4.93;;;4.53;;
3433;SDS011;1730;41.932;25.548;2023-02-22T13:33:47;2.63;;;1.67;;
3433;SDS011;1730;41.932;25.548;2023-02-22T13:36:28;2.17;;;1.77;;
3433;SDS011;1730;41.932;25.548;2023-02-22T13:53:41;3.23;;;1.37;;
3433;SDS011;1730;41.932;25.548;2023-02-22T13:56:07;1.40;;;1.30;;
3433;SDS011;1730;41.932;25.548;2023-02-22T13:58:48;1.73;;;1.63;;
3433;SDS011;1730;41.932;25.548;2023-02-22T14:06:58;8.40;;;1.90;;
3433;SDS011;1730;41.932;25.548;2023-02-22T14:15:19;2.00;;;1.80;;
3433;SDS011;1730;41.932;25.548;2023-02-22T14:17:57;3.80;;;2.03;;
3433;SDS011;1730;41.932;25.548;2023-02-22T14:20:32;3.27;;;1.70;;
3433;SDS011;1730;41.932;25.548;2023-02-22T14:28:52;1.80;;;1.70;;
3433;SDS011;1730;41.932;25.548;2023-02-22T14:31:25;3.10;;;1.87;;
3433;SDS011;1730;41.932;25.548;2023-02-22T14:36:38;3.77;;;1.80;;
3433;SDS011;1730;41.932;25.548;2023-02-22T14:39:26;4.40;;;2.37;;
3433;SDS011;1730;41.932;25.548;2023-02-22T14:42:09;9.60;;;5.50;;
3433;SDS011;1730;41.932;25.548;2023-02-22T14:44:47;3.37;;;2.77;;
3433;SDS011;1730;41.932;25.548;2023-02-22T14:47:17;2.10;;;1.90;;
3433;SDS011;1730;41.932;25.548;2023-02-22T14:49:53;6.37;;;3.50;;
3433;SDS011;1730;41.932;25.548;2023-02-22T14:52:27;4.07;;;3.00;;
3433;SDS011;1730;41.932;25.548;2023-02-22T15:00:43;4.20;;;3.47;;
3433;SDS011;1730;41.932;25.548;2023-02-22T15:03:24;6.50;;;4.60;;
3433;SDS011;1730;41.932;25.548;2023-02-22T15:06:18;9.13;;;5.03;;
3433;SDS011;1730;41.932;25.548;2023-02-22T15:08:46;6.47;;;5.87;;
3433;SDS011;1730;41.932;25.548;2023-02-22T15:11:21;11.60;;;5.90;;
3433;SDS011;1730;41.932;25.548;2023-02-22T15:13:52;9.57;;;5.90;;
3433;SDS011;1730;41.932;25.548;2023-02-22T15:16:19;8.47;;;5.03;;
3433;SDS011;1730;41.932;25.548;2023-02-22T15:18:47;12.33;;;7.00;;
3433;SDS011;1730;41.932;25.548;2023-02-22T15:21:18;16.30;;;8.23;;
3433;SDS011;1730;41.932;25.548;2023-02-22T15:23:50;19.73;;;9.40;;
3433;SDS011;1730;41.932;25.548;2023-02-22T15:26:22;21.63;;;10.40;;
3433;SDS011;1730;41.932;25.548;2023-02-22T15:28:55;19.77;;;11.43;;
3433;SDS011;1730;41.932;25.548;2023-02-22T15:31:23;17.70;;;11.70;;
3433;SDS011;1730;41.932;25.548;2023-02-22T15:33:52;30.43;;;11.27;;
3433;SDS011;1730;41.932;25.548;2023-02-22T15:36:21;17.30;;;10.47;;
3433;SDS011;1730;41.932;25.548;2023-02-22T15:38:51;18.07;;;12.23;;
3433;SDS011;1730;41.932;25.548;2023-02-22T15:41:28;16.30;;;11.47;;
3433;SDS011;1730;41.932;25.548;2023-02-22T15:44:00;37.97;;;15.10;;
3433;SDS011;1730;41.932;25.548;2023-02-22T15:46:34;57.73;;;25.43;;
3433;SDS011;1730;41.932;25.548;2023-02-22T15:49:04;49.13;;;26.40;;
3433;SDS011;1730;41.932;25.548;2023-02-22T15:51:29;33.87;;;16.77;;
3433;SDS011;1730;41.932;25.548;2023-02-22T15:53:57;25.57;;;11.90;;
3433;SDS011;1730;41.932;25.548;2023-02-22T15:56:27;24.23;;;12.40;;
3433;SDS011;1730;41.932;25.548;2023-02-22T15:58:58;32.47;;;22.87;;
3433;SDS011;1730;41.932;25.548;2023-02-22T16:01:28;16.13;;;12.03;;
3433;SDS011;1730;41.932;25.548;2023-02-22T16:03:57;8.43;;;7.53;;
3433;SDS011;1730;41.932;25.548;2023-02-22T16:06:39;14.00;;;10.93;;
3433;SDS011;1730;41.932;25.548;2023-02-22T16:14:45;32.67;;;21.00;;
3433;SDS011;1730;41.932;25.548;2023-02-22T16:22:43;32.07;;;17.97;;
3433;SDS011;1730;41.932;25.548;2023-02-22T16:27:59;47.00;;;27.73;;
3433;SDS011;1730;41.932;25.548;2023-02-22T16:30:39;60.40;;;35.00;;
3433;SDS011;1730;41.932;25.548;2023-02-22T16:33:08;37.77;;;20.50;;
3433;SDS011;1730;41.932;25.548;2023-02-22T16:35:40;32.10;;;17.30;;
3433;SDS011;1730;41.932;25.548;2023-02-22T16:38:16;35.97;;;17.10;;
3433;SDS011;1730;41.932;25.548;2023-02-22T16:43:16;42.07;;;19.43;;
3433;SDS011;1730;41.932;25.548;2023-02-22T16:45:45;30.93;;;18.13;;
3433;SDS011;1730;41.932;25.548;2023-02-22T16:48:18;36.77;;;18.10;;
3433;SDS011;1730;41.932;25.548;2023-02-22T16:50:46;50.17;;;19.10;;
3433;SDS011;1730;41.932;25.548;2023-02-22T16:53:13;32.30;;;18.27;;
3433;SDS011;1730;41.932;25.548;2023-02-22T16:55:42;36.17;;;19.10;;
3433;SDS011;1730;41.932;25.548;2023-02-22T16:58:11;30.83;;;14.07;;
3433;SDS011;1730;41.932;25.548;2023-02-22T17:00:39;23.90;;;13.00;;
3433;SDS011;1730;41.932;25.548;2023-02-22T17:03:06;30.27;;;14.40;;
3433;SDS011;1730;41.932;25.548;2023-02-22T17:05:39;40.77;;;18.87;;
3433;SDS011;1730;41.932;25.548;2023-02-22T17:08:05;40.77;;;20.10;;
3433;SDS011;1730;41.932;25.548;2023-02-22T17:10:31;33.03;;;20.10;;
3433;SDS011;1730;41.932;25.548;2023-02-22T17:12:57;38.83;;;21.80;;
3433;SDS011;1730;41.932;25.548;2023-02-22T17:15:28;30.50;;;20.90;;
3433;SDS011;1730;41.932;25.548;2023-02-22T17:17:56;64.37;;;33.30;;
3433;SDS011;1730;41.932;25.548;2023-02-22T17:20:23;35.80;;;21.87;;
3433;SDS011;1730;41.932;25.548;2023-02-22T17:23:03;36.00;;;25.20;;
3433;SDS011;1730;41.932;25.548;2023-02-22T17:25:39;69.70;;;33.67;;
3433;SDS011;1730;41.932;25.548;2023-02-22T17:28:07;34.17;;;20.83;;
3433;SDS011;1730;41.932;25.548;2023-02-22T17:30:33;40.60;;;22.40;;
3433;SDS011;1730;41.932;25.548;2023-02-22T17:33:00;39.67;;;25.50;;
3433;SDS011;1730;41.932;25.548;2023-02-22T17:35:28;38.57;;;20.27;;
3433;SDS011;1730;41.932;25.548;2023-02-22T17:37:57;38.67;;;24.03;;
3433;SDS011;1730;41.932;25.548;2023-02-22T17:40:24;29.97;;;19.30;;
3433;SDS011;1730;41.932;25.548;2023-02-22T17:42:49;30.30;;;16.60;;
3433;SDS011;1730;41.932;25.548;2023-02-22T17:45:20;41.87;;;22.80;;
3433;SDS011;1730;41.932;25.548;2023-02-22T17:47:47;46.13;;;25.40;;
3433;SDS011;1730;41.932;25.548;2023-02-22T17:50:18;41.97;;;24.30;;
3433;SDS011;1730;41.932;25.548;2023-02-22T17:52:45;41.33;;;21.93;;
3433;SDS011;1730;41.932;25.548;2023-02-22T17:55:11;37.40;;;21.57;;
3433;SDS011;1730;41.932;25.548;2023-02-22T17:57:38;37.77;;;19.90;;
3433;SDS011;1730;41.932;25.548;2023-02-22T18:00:09;34.30;;;18.90;;
3433;SDS011;1730;41.932;25.548;2023-02-22T18:02:43;46.13;;;19.80;;
3433;SDS011;1730;41.932;25.548;2023-02-22T18:05:10;37.70;;;18.97;;
3433;SDS011;1730;41.932;25.548;2023-02-22T18:07:37;33.33;;;18.90;;
3433;SDS011;1730;41.932;25.548;2023-02-22T18:10:04;36.50;;;21.53;;